sensor_id;sensor_type;location;lat;lon;timestamp;P1;durP1;ratioP1;P2;durP2;ratioP2
72974;SDS011;61166;54.228;37.632;2022-07-10T00:02:25;9.02;;;6.82;;
72974;SDS011;61166;54.228;37.632;2022-07-10T00:04:50;10.83;;;6.70;;
72974;SDS011;61166;54.228;37.632;2022-07-10T00:07:15;10.90;;;5.90;;
72974;SDS011;61166;54.228;37.632;2022-07-10T00:09:41;10.37;;;7.00;;
72974;SDS011;61166;54.228;37.632;2022-07-10T00:12:06;11.13;;;8.53;;
72974;SDS011;61166;54.228;37.632;2022-07-10T00:14:32;12.18;;;8.10;;
72974;SDS011;61166;54.228;37.632;2022-07-10T00:16:57;11.67;;;8.50;;
72974;SDS011;61166;54.228;37.632;2022-07-10T00:19:23;12.80;;;8.57;;
72974;SDS011;61166;54.228;37.632;2022-07-10T00:21:48;12.50;;;9.63;;
72974;SDS011;61166;54.228;37.632;2022-07-10T00:24:13;14.85;;;11.13;;
72974;SDS011;61166;54.228;37.632;2022-07-10T00:26:39;15.13;;;10.63;;
72974;SDS011;61166;54.228;37.632;2022-07-10T00:29:04;16.30;;;11.00;;
72974;SDS011;61166;54.228;37.632;2022-07-10T00:31:30;15.67;;;10.63;;
72974;SDS011;61166;54.228;37.632;2022-07-10T00:33:56;13.37;;;9.93;;
72974;SDS011;61166;54.228;37.632;2022-07-10T00:36:21;13.17;;;9.00;;
72974;SDS011;61166;54.228;37.632;2022-07-10T00:38:46;14.03;;;9.53;;
72974;SDS011;61166;54.228;37.632;2022-07-10T00:41:12;11.23;;;8.25;;
72974;SDS011;61166;54.228;37.632;2022-07-10T00:44:10;12.27;;;8.30;;
72974;SDS011;61166;54.228;37.632;2022-07-10T00:46:30;13.50;;;8.70;;
72974;SDS011;61166;54.228;37.632;2022-07-10T00:48:56;12.80;;;8.97;;
72974;SDS011;61166;54.228;37.632;2022-07-10T00:51:25;11.98;;;8.70;;
72974;SDS011;61166;54.228;37.632;2022-07-10T00:53:54;12.57;;;8.68;;
72974;SDS011;61166;54.228;37.632;2022-07-10T00:56:22;11.20;;;8.52;;
72974;SDS011;61166;54.228;37.632;2022-07-10T00:58:49;9.48;;;7.65;;
72974;SDS011;61166;54.228;37.632;2022-07-10T01:01:15;10.33;;;7.73;;
72974;SDS011;61166;54.228;37.632;2022-07-10T01:03:42;11.38;;;8.07;;
72974;SDS011;61166;54.228;37.632;2022-07-10T01:06:09;13.48;;;9.25;;
72974;SDS011;61166;54.228;37.632;2022-07-10T01:08:34;14.88;;;10.00;;
72974;SDS011;61166;54.228;37.632;2022-07-10T01:11:01;16.60;;;10.45;;
72974;SDS011;61166;54.228;37.632;2022-07-10T01:13:27;14.87;;;10.50;;
72974;SDS011;61166;54.228;37.632;2022-07-10T01:15:53;18.38;;;12.32;;
72974;SDS011;61166;54.228;37.632;2022-07-10T01:18:19;15.65;;;11.88;;
72974;SDS011;61166;54.228;37.632;2022-07-10T01:20:45;16.25;;;11.60;;
72974;SDS011;61166;54.228;37.632;2022-07-10T01:23:10;18.57;;;11.27;;
72974;SDS011;61166;54.228;37.632;2022-07-10T01:25:36;16.92;;;11.02;;
72974;SDS011;61166;54.228;37.632;2022-07-10T01:28:02;18.53;;;10.00;;
72974;SDS011;61166;54.228;37.632;2022-07-10T01:30:28;14.65;;;10.70;;
72974;SDS011;61166;54.228;37.632;2022-07-10T01:32:53;15.93;;;11.23;;
72974;SDS011;61166;54.228;37.632;2022-07-10T01:35:18;14.33;;;10.93;;
72974;SDS011;61166;54.228;37.632;2022-07-10T01:37:44;16.57;;;10.83;;
72974;SDS011;61166;54.228;37.632;2022-07-10T01:40:10;16.03;;;11.03;;
72974;SDS011;61166;54.228;37.632;2022-07-10T01:42:36;16.42;;;11.13;;
72974;SDS011;61166;54.228;37.632;2022-07-10T01:45:08;14.30;;;11.23;;
72974;SDS011;61166;54.228;37.632;2022-07-10T01:47:34;16.35;;;12.00;;
72974;SDS011;61166;54.228;37.632;2022-07-10T01:50:00;17.07;;;12.30;;
72974;SDS011;61166;54.228;37.632;2022-07-10T01:52:25;18.25;;;11.73;;
72974;SDS011;61166;54.228;37.632;2022-07-10T01:54:51;17.07;;;11.53;;
72974;SDS011;61166;54.228;37.632;2022-07-10T01:57:16;15.60;;;11.18;;
72974;SDS011;61166;54.228;37.632;2022-07-10T01:59:42;17.13;;;12.20;;
72974;SDS011;61166;54.228;37.632;2022-07-10T02:02:08;17.80;;;12.30;;
72974;SDS011;61166;54.228;37.632;2022-07-10T02:04:34;16.83;;;12.18;;
72974;SDS011;61166;54.228;37.632;2022-07-10T02:07:12;17.30;;;12.20;;
72974;SDS011;61166;54.228;37.632;2022-07-10T02:09:39;19.35;;;11.70;;
72974;SDS011;61166;54.228;37.632;2022-07-10T02:12:06;17.45;;;11.55;;
72974;SDS011;61166;54.228;37.632;2022-07-10T02:14:36;18.25;;;11.35;;
72974;SDS011;61166;54.228;37.632;2022-07-10T02:17:02;15.55;;;11.15;;
72974;SDS011;61166;54.228;37.632;2022-07-10T02:19:28;17.30;;;11.43;;
72974;SDS011;61166;54.228;37.632;2022-07-10T02:21:54;17.42;;;12.45;;
72974;SDS011;61166;54.228;37.632;2022-07-10T02:24:20;16.83;;;12.10;;
72974;SDS011;61166;54.228;37.632;2022-07-10T02:26:45;16.23;;;11.63;;
72974;SDS011;61166;54.228;37.632;2022-07-10T02:29:10;15.68;;;11.70;;
72974;SDS011;61166;54.228;37.632;2022-07-10T02:31:36;18.03;;;10.50;;
72974;SDS011;61166;54.228;37.632;2022-07-10T02:34:08;16.80;;;10.98;;
72974;SDS011;61166;54.228;37.632;2022-07-10T02:36:35;16.97;;;11.37;;
72974;SDS011;61166;54.228;37.632;2022-07-10T02:39:03;15.65;;;11.02;;
72974;SDS011;61166;54.228;37.632;2022-07-10T02:41:29;19.17;;;12.10;;
72974;SDS011;61166;54.228;37.632;2022-07-10T02:43:54;15.87;;;11.43;;
72974;SDS011;61166;54.228;37.632;2022-07-10T02:46:19;18.10;;;12.13;;
72974;SDS011;61166;54.228;37.632;2022-07-10T02:48:45;15.90;;;11.35;;
72974;SDS011;61166;54.228;37.632;2022-07-10T02:51:10;15.83;;;11.97;;
72974;SDS011;61166;54.228;37.632;2022-07-10T02:53:35;16.17;;;11.00;;
72974;SDS011;61166;54.228;37.632;2022-07-10T02:56:01;15.97;;;11.43;;
72974;SDS011;61166;54.228;37.632;2022-07-10T02:58:26;15.32;;;12.45;;
72974;SDS011;61166;54.228;37.632;2022-07-10T03:00:52;14.30;;;11.43;;
72974;SDS011;61166;54.228;37.632;2022-07-10T03:03:18;13.13;;;9.43;;
72974;SDS011;61166;54.228;37.632;2022-07-10T03:05:46;12.60;;;11.35;;
72974;SDS011;61166;54.228;37.632;2022-07-10T03:08:12;13.55;;;12.15;;
72974;SDS011;61166;54.228;37.632;2022-07-10T03:10:38;13.50;;;9.57;;
72974;SDS011;61166;54.228;37.632;2022-07-10T03:13:03;13.30;;;9.90;;
72974;SDS011;61166;54.228;37.632;2022-07-10T03:15:29;14.48;;;12.27;;
72974;SDS011;61166;54.228;37.632;2022-07-10T03:17:55;12.40;;;10.10;;
72974;SDS011;61166;54.228;37.632;2022-07-10T03:20:20;17.07;;;12.97;;
72974;SDS011;61166;54.228;37.632;2022-07-10T03:22:45;12.75;;;11.38;;
72974;SDS011;61166;54.228;37.632;2022-07-10T03:25:11;16.53;;;14.67;;
72974;SDS011;61166;54.228;37.632;2022-07-10T03:27:36;14.90;;;13.40;;
72974;SDS011;61166;54.228;37.632;2022-07-10T03:30:02;15.80;;;14.27;;
72974;SDS011;61166;54.228;37.632;2022-07-10T03:32:28;14.13;;;12.90;;
72974;SDS011;61166;54.228;37.632;2022-07-10T03:34:54;16.10;;;14.63;;
72974;SDS011;61166;54.228;37.632;2022-07-10T03:37:20;18.57;;;16.57;;
72974;SDS011;61166;54.228;37.632;2022-07-10T03:39:45;17.00;;;15.57;;
72974;SDS011;61166;54.228;37.632;2022-07-10T03:42:10;16.33;;;14.97;;
72974;SDS011;61166;54.228;37.632;2022-07-10T03:44:36;15.82;;;14.35;;
72974;SDS011;61166;54.228;37.632;2022-07-10T03:47:01;19.50;;;14.43;;
72974;SDS011;61166;54.228;37.632;2022-07-10T03:49:27;14.67;;;13.33;;
72974;SDS011;61166;54.228;37.632;2022-07-10T03:51:52;13.27;;;11.18;;
72974;SDS011;61166;54.228;37.632;2022-07-10T03:54:18;10.93;;;9.83;;
72974;SDS011;61166;54.228;37.632;2022-07-10T03:56:44;13.45;;;10.32;;
72974;SDS011;61166;54.228;37.632;2022-07-10T03:59:28;10.43;;;9.40;;
72974;SDS011;61166;54.228;37.632;2022-07-10T04:01:53;10.15;;;9.25;;
72974;SDS011;61166;54.228;37.632;2022-07-10T04:04:18;10.13;;;8.77;;
72974;SDS011;61166;54.228;37.632;2022-07-10T04:06:44;9.63;;;7.47;;
72974;SDS011;61166;54.228;37.632;2022-07-10T04:09:09;11.53;;;8.40;;
72974;SDS011;61166;54.228;37.632;2022-07-10T04:11:35;8.17;;;7.43;;
72974;SDS011;61166;54.228;37.632;2022-07-10T04:14:00;9.70;;;8.43;;
72974;SDS011;61166;54.228;37.632;2022-07-10T04:16:25;9.27;;;7.73;;
72974;SDS011;61166;54.228;37.632;2022-07-10T04:18:51;9.27;;;8.33;;
72974;SDS011;61166;54.228;37.632;2022-07-10T04:21:16;10.10;;;7.97;;
72974;SDS011;61166;54.228;37.632;2022-07-10T04:23:41;8.70;;;7.80;;
72974;SDS011;61166;54.228;37.632;2022-07-10T04:26:07;8.67;;;7.57;;
72974;SDS011;61166;54.228;37.632;2022-07-10T04:28:32;8.10;;;7.30;;
72974;SDS011;61166;54.228;37.632;2022-07-10T04:30:58;7.63;;;6.40;;
72974;SDS011;61166;54.228;37.632;2022-07-10T04:33:24;6.60;;;5.60;;
72974;SDS011;61166;54.228;37.632;2022-07-10T04:35:50;7.68;;;5.70;;
72974;SDS011;61166;54.228;37.632;2022-07-10T04:38:15;7.23;;;5.70;;
72974;SDS011;61166;54.228;37.632;2022-07-10T04:40:41;14.43;;;9.83;;
72974;SDS011;61166;54.228;37.632;2022-07-10T04:43:06;7.83;;;5.73;;
72974;SDS011;61166;54.228;37.632;2022-07-10T04:45:32;11.80;;;6.20;;
72974;SDS011;61166;54.228;37.632;2022-07-10T04:47:57;8.23;;;6.00;;
72974;SDS011;61166;54.228;37.632;2022-07-10T04:50:23;7.30;;;6.23;;
72974;SDS011;61166;54.228;37.632;2022-07-10T04:52:48;8.03;;;5.67;;
72974;SDS011;61166;54.228;37.632;2022-07-10T04:55:13;8.63;;;6.33;;
72974;SDS011;61166;54.228;37.632;2022-07-10T04:57:39;7.03;;;6.22;;
72974;SDS011;61166;54.228;37.632;2022-07-10T05:00:08;7.60;;;6.90;;
72974;SDS011;61166;54.228;37.632;2022-07-10T05:02:34;11.13;;;10.05;;
72974;SDS011;61166;54.228;37.632;2022-07-10T05:04:59;14.23;;;13.13;;
72974;SDS011;61166;54.228;37.632;2022-07-10T05:07:25;9.97;;;8.97;;
72974;SDS011;61166;54.228;37.632;2022-07-10T05:09:50;7.60;;;6.43;;
72974;SDS011;61166;54.228;37.632;2022-07-10T05:12:15;13.03;;;11.80;;
72974;SDS011;61166;54.228;37.632;2022-07-10T05:14:41;14.57;;;13.03;;
72974;SDS011;61166;54.228;37.632;2022-07-10T05:17:06;13.80;;;12.52;;
72974;SDS011;61166;54.228;37.632;2022-07-10T05:19:32;13.87;;;12.47;;
72974;SDS011;61166;54.228;37.632;2022-07-10T05:21:57;8.20;;;7.33;;
72974;SDS011;61166;54.228;37.632;2022-07-10T05:24:22;13.33;;;12.33;;
72974;SDS011;61166;54.228;37.632;2022-07-10T05:26:48;13.23;;;12.23;;
72974;SDS011;61166;54.228;37.632;2022-07-10T05:29:13;11.00;;;9.93;;
72974;SDS011;61166;54.228;37.632;2022-07-10T05:31:39;12.57;;;11.70;;
72974;SDS011;61166;54.228;37.632;2022-07-10T05:34:04;11.67;;;10.77;;
72974;SDS011;61166;54.228;37.632;2022-07-10T05:36:30;12.65;;;11.85;;
72974;SDS011;61166;54.228;37.632;2022-07-10T05:38:56;13.43;;;12.63;;
72974;SDS011;61166;54.228;37.632;2022-07-10T05:41:21;12.67;;;11.80;;
72974;SDS011;61166;54.228;37.632;2022-07-10T05:43:47;13.10;;;12.10;;
72974;SDS011;61166;54.228;37.632;2022-07-10T05:46:12;12.97;;;12.03;;
72974;SDS011;61166;54.228;37.632;2022-07-10T05:48:38;13.18;;;12.18;;
72974;SDS011;61166;54.228;37.632;2022-07-10T05:51:03;13.10;;;12.00;;
72974;SDS011;61166;54.228;37.632;2022-07-10T05:53:29;13.43;;;12.37;;
72974;SDS011;61166;54.228;37.632;2022-07-10T05:55:54;8.77;;;7.97;;
72974;SDS011;61166;54.228;37.632;2022-07-10T05:58:20;11.10;;;10.40;;
72974;SDS011;61166;54.228;37.632;2022-07-10T06:00:45;13.67;;;12.77;;
72974;SDS011;61166;54.228;37.632;2022-07-10T06:03:11;12.75;;;11.77;;
72974;SDS011;61166;54.228;37.632;2022-07-10T06:05:36;13.47;;;12.40;;
72974;SDS011;61166;54.228;37.632;2022-07-10T06:08:02;11.87;;;10.90;;
72974;SDS011;61166;54.228;37.632;2022-07-10T06:10:28;12.77;;;11.88;;
72974;SDS011;61166;54.228;37.632;2022-07-10T06:12:53;13.10;;;12.00;;
72974;SDS011;61166;54.228;37.632;2022-07-10T06:15:19;13.13;;;11.93;;
72974;SDS011;61166;54.228;37.632;2022-07-10T06:17:44;14.60;;;13.43;;
72974;SDS011;61166;54.228;37.632;2022-07-10T06:20:10;13.90;;;12.73;;
72974;SDS011;61166;54.228;37.632;2022-07-10T06:22:35;13.15;;;12.15;;
72974;SDS011;61166;54.228;37.632;2022-07-10T06:25:02;11.47;;;10.53;;
72974;SDS011;61166;54.228;37.632;2022-07-10T06:27:29;14.60;;;13.50;;
72974;SDS011;61166;54.228;37.632;2022-07-10T06:29:55;16.50;;;15.07;;
72974;SDS011;61166;54.228;37.632;2022-07-10T06:32:21;14.03;;;12.83;;
72974;SDS011;61166;54.228;37.632;2022-07-10T06:34:49;13.65;;;12.55;;
72974;SDS011;61166;54.228;37.632;2022-07-10T06:37:15;15.13;;;13.90;;
72974;SDS011;61166;54.228;37.632;2022-07-10T06:39:40;13.70;;;12.50;;
72974;SDS011;61166;54.228;37.632;2022-07-10T06:42:06;15.00;;;13.80;;
72974;SDS011;61166;54.228;37.632;2022-07-10T06:44:32;16.07;;;12.30;;
72974;SDS011;61166;54.228;37.632;2022-07-10T06:46:57;12.57;;;11.48;;
72974;SDS011;61166;54.228;37.632;2022-07-10T06:49:43;13.55;;;12.43;;
72974;SDS011;61166;54.228;37.632;2022-07-10T06:52:10;12.90;;;11.90;;
72974;SDS011;61166;54.228;37.632;2022-07-10T06:54:36;12.68;;;11.48;;
72974;SDS011;61166;54.228;37.632;2022-07-10T06:57:02;15.17;;;13.67;;
72974;SDS011;61166;54.228;37.632;2022-07-10T06:59:27;12.93;;;11.70;;
72974;SDS011;61166;54.228;37.632;2022-07-10T07:01:53;11.00;;;10.00;;
72974;SDS011;61166;54.228;37.632;2022-07-10T07:04:18;12.50;;;11.30;;
72974;SDS011;61166;54.228;37.632;2022-07-10T07:06:44;11.10;;;10.10;;
72974;SDS011;61166;54.228;37.632;2022-07-10T07:09:09;13.00;;;11.97;;
72974;SDS011;61166;54.228;37.632;2022-07-10T07:11:34;12.93;;;10.43;;
72974;SDS011;61166;54.228;37.632;2022-07-10T07:14:00;11.07;;;10.23;;
72974;SDS011;61166;54.228;37.632;2022-07-10T07:16:25;11.20;;;10.27;;
72974;SDS011;61166;54.228;37.632;2022-07-10T07:19:03;11.10;;;10.10;;
72974;SDS011;61166;54.228;37.632;2022-07-10T07:21:32;11.13;;;9.30;;
72974;SDS011;61166;54.228;37.632;2022-07-10T07:24:17;10.15;;;9.27;;
72974;SDS011;61166;54.228;37.632;2022-07-10T07:26:46;10.93;;;9.98;;
72974;SDS011;61166;54.228;37.632;2022-07-10T07:29:12;10.48;;;9.52;;
72974;SDS011;61166;54.228;37.632;2022-07-10T07:31:41;11.27;;;10.35;;
72974;SDS011;61166;54.228;37.632;2022-07-10T07:34:07;9.53;;;8.57;;
72974;SDS011;61166;54.228;37.632;2022-07-10T07:36:32;10.70;;;9.77;;
72974;SDS011;61166;54.228;37.632;2022-07-10T07:38:57;9.80;;;9.10;;
72974;SDS011;61166;54.228;37.632;2022-07-10T07:41:23;10.30;;;9.32;;
72974;SDS011;61166;54.228;37.632;2022-07-10T07:43:49;9.60;;;8.80;;
72974;SDS011;61166;54.228;37.632;2022-07-10T07:46:14;9.57;;;8.77;;
72974;SDS011;61166;54.228;37.632;2022-07-10T07:48:40;9.80;;;9.03;;
72974;SDS011;61166;54.228;37.632;2022-07-10T07:51:06;9.35;;;8.40;;
72974;SDS011;61166;54.228;37.632;2022-07-10T07:53:31;10.13;;;9.40;;
72974;SDS011;61166;54.228;37.632;2022-07-10T07:55:57;9.73;;;8.80;;
72974;SDS011;61166;54.228;37.632;2022-07-10T07:58:22;10.77;;;9.15;;
72974;SDS011;61166;54.228;37.632;2022-07-10T08:00:47;8.57;;;7.77;;
72974;SDS011;61166;54.228;37.632;2022-07-10T08:03:13;9.27;;;8.50;;
72974;SDS011;61166;54.228;37.632;2022-07-10T08:05:38;10.53;;;9.63;;
72974;SDS011;61166;54.228;37.632;2022-07-10T08:08:04;9.40;;;8.50;;
72974;SDS011;61166;54.228;37.632;2022-07-10T08:10:32;9.87;;;8.87;;
72974;SDS011;61166;54.228;37.632;2022-07-10T08:12:57;10.10;;;9.15;;
72974;SDS011;61166;54.228;37.632;2022-07-10T08:15:23;9.87;;;8.33;;
72974;SDS011;61166;54.228;37.632;2022-07-10T08:17:52;8.93;;;8.23;;
72974;SDS011;61166;54.228;37.632;2022-07-10T08:20:20;9.18;;;8.38;;
72974;SDS011;61166;54.228;37.632;2022-07-10T08:22:46;9.82;;;8.98;;
72974;SDS011;61166;54.228;37.632;2022-07-10T08:25:13;9.80;;;8.73;;
72974;SDS011;61166;54.228;37.632;2022-07-10T08:27:39;10.45;;;9.32;;
72974;SDS011;61166;54.228;37.632;2022-07-10T08:30:05;10.17;;;9.10;;
72974;SDS011;61166;54.228;37.632;2022-07-10T08:32:31;10.63;;;9.35;;
72974;SDS011;61166;54.228;37.632;2022-07-10T08:34:57;8.97;;;8.07;;
72974;SDS011;61166;54.228;37.632;2022-07-10T08:37:24;8.65;;;7.93;;
72974;SDS011;61166;54.228;37.632;2022-07-10T08:39:49;8.80;;;7.93;;
72974;SDS011;61166;54.228;37.632;2022-07-10T08:42:15;9.43;;;8.32;;
72974;SDS011;61166;54.228;37.632;2022-07-10T08:44:41;9.13;;;8.23;;
72974;SDS011;61166;54.228;37.632;2022-07-10T08:47:07;9.02;;;7.65;;
72974;SDS011;61166;54.228;37.632;2022-07-10T08:49:32;10.23;;;9.30;;
72974;SDS011;61166;54.228;37.632;2022-07-10T08:52:04;10.27;;;6.95;;
72974;SDS011;61166;54.228;37.632;2022-07-10T08:54:33;8.88;;;8.18;;
72974;SDS011;61166;54.228;37.632;2022-07-10T08:57:00;8.43;;;7.63;;
72974;SDS011;61166;54.228;37.632;2022-07-10T08:59:28;9.35;;;8.65;;
72974;SDS011;61166;54.228;37.632;2022-07-10T09:01:55;8.40;;;7.37;;
72974;SDS011;61166;54.228;37.632;2022-07-10T09:04:21;7.97;;;6.82;;
72974;SDS011;61166;54.228;37.632;2022-07-10T09:06:48;7.90;;;7.10;;
72974;SDS011;61166;54.228;37.632;2022-07-10T09:09:14;8.60;;;7.03;;
72974;SDS011;61166;54.228;37.632;2022-07-10T09:11:40;7.83;;;7.10;;
72974;SDS011;61166;54.228;37.632;2022-07-10T09:14:07;7.82;;;6.70;;
72974;SDS011;61166;54.228;37.632;2022-07-10T09:16:36;7.32;;;6.68;;
72974;SDS011;61166;54.228;37.632;2022-07-10T09:21:39;8.18;;;6.57;;
72974;SDS011;61166;54.228;37.632;2022-07-10T09:24:07;7.43;;;6.70;;
72974;SDS011;61166;54.228;37.632;2022-07-10T09:26:33;8.07;;;7.28;;
72974;SDS011;61166;54.228;37.632;2022-07-10T09:29:08;7.20;;;6.60;;
72974;SDS011;61166;54.228;37.632;2022-07-10T09:34:16;7.60;;;5.90;;
72974;SDS011;61166;54.228;37.632;2022-07-10T09:36:42;6.95;;;6.25;;
72974;SDS011;61166;54.228;37.632;2022-07-10T09:39:08;7.60;;;6.90;;
72974;SDS011;61166;54.228;37.632;2022-07-10T09:41:33;6.77;;;6.17;;
72974;SDS011;61166;54.228;37.632;2022-07-10T09:44:00;7.15;;;6.40;;
72974;SDS011;61166;54.228;37.632;2022-07-10T09:46:31;10.73;;;7.53;;
72974;SDS011;61166;54.228;37.632;2022-07-10T09:49:12;11.40;;;7.72;;
72974;SDS011;61166;54.228;37.632;2022-07-10T09:51:39;6.70;;;5.83;;
72974;SDS011;61166;54.228;37.632;2022-07-10T09:54:07;9.52;;;5.93;;
72974;SDS011;61166;54.228;37.632;2022-07-10T09:56:45;7.78;;;5.97;;
72974;SDS011;61166;54.228;37.632;2022-07-10T09:59:17;6.82;;;6.10;;
72974;SDS011;61166;54.228;37.632;2022-07-10T10:04:13;4.87;;;4.27;;
72974;SDS011;61166;54.228;37.632;2022-07-10T10:06:40;7.13;;;4.97;;
72974;SDS011;61166;54.228;37.632;2022-07-10T10:09:07;6.28;;;4.78;;
72974;SDS011;61166;54.228;37.632;2022-07-10T10:11:37;5.93;;;4.28;;
72974;SDS011;61166;54.228;37.632;2022-07-10T10:14:07;6.00;;;3.95;;
72974;SDS011;61166;54.228;37.632;2022-07-10T10:16:33;7.77;;;4.93;;
72974;SDS011;61166;54.228;37.632;2022-07-10T10:18:58;7.82;;;4.18;;
72974;SDS011;61166;54.228;37.632;2022-07-10T10:21:43;6.53;;;4.55;;
72974;SDS011;61166;54.228;37.632;2022-07-10T10:24:08;8.13;;;4.53;;
72974;SDS011;61166;54.228;37.632;2022-07-10T10:26:36;7.07;;;4.80;;
72974;SDS011;61166;54.228;37.632;2022-07-10T10:29:01;6.23;;;5.07;;
72974;SDS011;61166;54.228;37.632;2022-07-10T10:31:29;8.45;;;5.63;;
72974;SDS011;61166;54.228;37.632;2022-07-10T10:33:56;7.00;;;4.78;;
72974;SDS011;61166;54.228;37.632;2022-07-10T10:36:45;6.05;;;3.90;;
72974;SDS011;61166;54.228;37.632;2022-07-10T10:39:14;6.80;;;4.22;;
72974;SDS011;61166;54.228;37.632;2022-07-10T10:41:51;4.90;;;3.30;;
72974;SDS011;61166;54.228;37.632;2022-07-10T10:52:19;8.43;;;3.60;;
72974;SDS011;61166;54.228;37.632;2022-07-10T11:00:01;7.55;;;4.15;;
72974;SDS011;61166;54.228;37.632;2022-07-10T11:02:33;9.93;;;3.85;;
72974;SDS011;61166;54.228;37.632;2022-07-10T11:10:38;9.33;;;3.97;;
72974;SDS011;61166;54.228;37.632;2022-07-10T11:13:08;9.00;;;3.33;;
72974;SDS011;61166;54.228;37.632;2022-07-10T11:15:48;7.15;;;3.60;;
72974;SDS011;61166;54.228;37.632;2022-07-10T11:18:17;6.28;;;3.80;;
72974;SDS011;61166;54.228;37.632;2022-07-10T11:20:51;8.20;;;4.28;;
72974;SDS011;61166;54.228;37.632;2022-07-10T11:26:05;7.10;;;3.88;;
72974;SDS011;61166;54.228;37.632;2022-07-10T11:28:38;5.75;;;3.50;;
72974;SDS011;61166;54.228;37.632;2022-07-10T11:31:11;7.40;;;3.25;;
72974;SDS011;61166;54.228;37.632;2022-07-10T11:33:44;4.53;;;3.40;;
72974;SDS011;61166;54.228;37.632;2022-07-10T11:36:14;12.07;;;4.30;;
72974;SDS011;61166;54.228;37.632;2022-07-10T11:38:45;10.25;;;4.50;;
72974;SDS011;61166;54.228;37.632;2022-07-10T11:41:14;7.68;;;3.80;;
72974;SDS011;61166;54.228;37.632;2022-07-10T11:43:53;5.23;;;4.07;;
72974;SDS011;61166;54.228;37.632;2022-07-10T11:46:23;7.85;;;4.00;;
72974;SDS011;61166;54.228;37.632;2022-07-10T11:48:50;6.60;;;3.75;;
72974;SDS011;61166;54.228;37.632;2022-07-10T11:54:34;7.40;;;3.72;;
72974;SDS011;61166;54.228;37.632;2022-07-10T11:56:46;7.40;;;3.70;;
72974;SDS011;61166;54.228;37.632;2022-07-10T11:59:25;11.00;;;5.53;;
72974;SDS011;61166;54.228;37.632;2022-07-10T12:01:53;8.32;;;4.20;;
72974;SDS011;61166;54.228;37.632;2022-07-10T12:04:21;14.27;;;4.57;;
72974;SDS011;61166;54.228;37.632;2022-07-10T12:06:49;9.48;;;5.20;;
72974;SDS011;61166;54.228;37.632;2022-07-10T12:09:17;10.33;;;5.40;;
72974;SDS011;61166;54.228;37.632;2022-07-10T12:11:57;14.20;;;5.47;;
72974;SDS011;61166;54.228;37.632;2022-07-10T12:14:26;7.80;;;5.00;;
72974;SDS011;61166;54.228;37.632;2022-07-10T12:16:52;13.73;;;5.50;;
72974;SDS011;61166;54.228;37.632;2022-07-10T12:19:19;10.05;;;5.60;;
72974;SDS011;61166;54.228;37.632;2022-07-10T12:21:48;10.13;;;4.97;;
72974;SDS011;61166;54.228;37.632;2022-07-10T12:24:17;7.18;;;5.10;;
72974;SDS011;61166;54.228;37.632;2022-07-10T12:26:48;13.95;;;6.00;;
72974;SDS011;61166;54.228;37.632;2022-07-10T12:31:43;7.75;;;4.55;;
72974;SDS011;61166;54.228;37.632;2022-07-10T12:34:10;9.80;;;5.35;;
72974;SDS011;61166;54.228;37.632;2022-07-10T12:36:50;10.73;;;7.47;;
72974;SDS011;61166;54.228;37.632;2022-07-10T12:39:18;8.00;;;5.47;;
72974;SDS011;61166;54.228;37.632;2022-07-10T12:41:55;8.23;;;4.63;;
72974;SDS011;61166;54.228;37.632;2022-07-10T12:47:06;6.05;;;4.30;;
72974;SDS011;61166;54.228;37.632;2022-07-10T12:52:31;15.73;;;8.65;;
72974;SDS011;61166;54.228;37.632;2022-07-10T12:57:54;12.60;;;6.03;;
72974;SDS011;61166;54.228;37.632;2022-07-10T13:02:48;11.30;;;5.43;;
72974;SDS011;61166;54.228;37.632;2022-07-10T13:08:17;8.67;;;5.20;;
72974;SDS011;61166;54.228;37.632;2022-07-10T13:10:50;8.40;;;5.30;;
72974;SDS011;61166;54.228;37.632;2022-07-10T13:13:19;13.10;;;4.72;;
72974;SDS011;61166;54.228;37.632;2022-07-10T13:15:46;12.32;;;6.85;;
72974;SDS011;61166;54.228;37.632;2022-07-10T13:18:15;6.90;;;4.75;;
72974;SDS011;61166;54.228;37.632;2022-07-10T13:20:45;9.90;;;4.60;;
72974;SDS011;61166;54.228;37.632;2022-07-10T13:23:11;7.28;;;5.20;;
72974;SDS011;61166;54.228;37.632;2022-07-10T13:25:37;9.85;;;6.15;;
72974;SDS011;61166;54.228;37.632;2022-07-10T13:28:04;8.60;;;5.60;;
72974;SDS011;61166;54.228;37.632;2022-07-10T13:30:30;8.32;;;5.07;;
72974;SDS011;61166;54.228;37.632;2022-07-10T13:32:56;8.60;;;6.38;;
72974;SDS011;61166;54.228;37.632;2022-07-10T13:35:22;6.43;;;5.10;;
72974;SDS011;61166;54.228;37.632;2022-07-10T13:37:48;6.78;;;4.95;;
72974;SDS011;61166;54.228;37.632;2022-07-10T13:40:13;8.02;;;5.50;;
72974;SDS011;61166;54.228;37.632;2022-07-10T13:42:39;13.17;;;5.60;;
72974;SDS011;61166;54.228;37.632;2022-07-10T13:45:04;6.83;;;5.10;;
72974;SDS011;61166;54.228;37.632;2022-07-10T13:47:30;9.27;;;6.30;;
72974;SDS011;61166;54.228;37.632;2022-07-10T13:49:55;15.77;;;7.43;;
72974;SDS011;61166;54.228;37.632;2022-07-10T13:52:21;12.43;;;6.73;;
72974;SDS011;61166;54.228;37.632;2022-07-10T13:54:46;9.10;;;6.90;;
72974;SDS011;61166;54.228;37.632;2022-07-10T13:57:12;13.83;;;6.90;;
72974;SDS011;61166;54.228;37.632;2022-07-10T13:59:37;14.47;;;6.47;;
72974;SDS011;61166;54.228;37.632;2022-07-10T14:02:03;11.43;;;6.60;;
72974;SDS011;61166;54.228;37.632;2022-07-10T14:04:29;10.70;;;7.10;;
72974;SDS011;61166;54.228;37.632;2022-07-10T14:06:54;10.40;;;7.00;;
72974;SDS011;61166;54.228;37.632;2022-07-10T14:09:20;10.80;;;7.00;;
72974;SDS011;61166;54.228;37.632;2022-07-10T14:11:48;11.63;;;6.72;;
72974;SDS011;61166;54.228;37.632;2022-07-10T14:14:14;11.20;;;6.23;;
72974;SDS011;61166;54.228;37.632;2022-07-10T14:16:39;10.00;;;6.07;;
72974;SDS011;61166;54.228;37.632;2022-07-10T14:19:05;9.77;;;6.13;;
72974;SDS011;61166;54.228;37.632;2022-07-10T14:21:30;9.43;;;3.10;;
72974;SDS011;61166;54.228;37.632;2022-07-10T14:23:55;10.43;;;3.07;;
72974;SDS011;61166;54.228;37.632;2022-07-10T14:26:21;12.15;;;3.30;;
72974;SDS011;61166;54.228;37.632;2022-07-10T14:28:47;9.13;;;3.33;;
72974;SDS011;61166;54.228;37.632;2022-07-10T14:31:13;8.23;;;3.17;;
72974;SDS011;61166;54.228;37.632;2022-07-10T14:33:39;11.20;;;3.83;;
72974;SDS011;61166;54.228;37.632;2022-07-10T14:36:04;10.18;;;3.72;;
72974;SDS011;61166;54.228;37.632;2022-07-10T14:38:30;9.07;;;4.03;;
72974;SDS011;61166;54.228;37.632;2022-07-10T14:40:55;5.00;;;2.90;;
72974;SDS011;61166;54.228;37.632;2022-07-10T14:43:21;7.53;;;3.83;;
72974;SDS011;61166;54.228;37.632;2022-07-10T14:45:49;9.15;;;4.40;;
72974;SDS011;61166;54.228;37.632;2022-07-10T14:48:14;8.03;;;3.93;;
72974;SDS011;61166;54.228;37.632;2022-07-10T14:50:40;8.80;;;4.70;;
72974;SDS011;61166;54.228;37.632;2022-07-10T14:53:08;9.30;;;3.97;;
72974;SDS011;61166;54.228;37.632;2022-07-10T14:55:34;8.05;;;3.97;;
72974;SDS011;61166;54.228;37.632;2022-07-10T14:58:01;8.65;;;4.40;;
72974;SDS011;61166;54.228;37.632;2022-07-10T15:00:26;8.53;;;4.47;;
72974;SDS011;61166;54.228;37.632;2022-07-10T15:02:52;13.88;;;4.35;;
72974;SDS011;61166;54.228;37.632;2022-07-10T15:05:17;10.30;;;4.70;;
72974;SDS011;61166;54.228;37.632;2022-07-10T15:07:43;16.17;;;4.90;;
72974;SDS011;61166;54.228;37.632;2022-07-10T15:10:08;10.97;;;4.73;;
72974;SDS011;61166;54.228;37.632;2022-07-10T15:12:34;9.30;;;4.40;;